Latest Weather Observations for Darwin Airport

IDD60801

Issued at 5:01 am CST Sunday 22 January 2017 (issued every 30 minutes, with the page automatically refreshed every 10 minutes)

About weather observations | Map of weather stations | Latest weather observations for NT | Other Formats
Station Details ID: 014015 Name: DARWIN AIRPORT Lat: -12.42 Lon: 130.89 Height: 30.4 m
Data from the previous 72 hours. | See also: Recent months at Darwin Airport
Date/Time
CST
Temp
°C
App
Temp
°C
Dew
Point
°C
Rel
Hum
%
Delta-T
°C
Wind Press
QNH
hPa
Press
MSL
hPa
Rain since
9am
mm
Dir  Spd
km/h
Gust
km/h
Spd
kts
Gust
kts
22/05:00am 26.7 31.5 25.1 91 1.1 W 9 15 5 8 1008.4 1008.1 3.8
22/04:30am 26.3 31.2 25.2 94 0.8 WSW 9 13 5 7 1008.3 1008.0 3.8
22/04:00am 25.2 29.9 24.3 95 0.6 W 7 9 4 5 1008.5 1008.2 3.8
22/03:36am 25.2 30.1 23.7 91 1.0 SW 4 6 2 3 1008.7 1008.4 3.8
22/03:30am 25.2 29.6 23.4 90 1.2 SW 6 9 3 5 1008.8 1008.5 3.8
22/03:20am 25.3 27.8 23.2 88 1.4 WSW 15 26 8 14 1009.0 1008.7 3.6
22/03:00am 26.5 32.1 25.5 94 0.7 WSW 6 7 3 4 1008.9 1008.6 2.0
22/02:30am 26.2 31.7 25.6 96 0.4 WSW 7 9 4 5 1009.1 1008.8 2.0
22/02:00am 26.2 31.8 25.5 96 0.5 W 6 7 3 4 1009.0 1008.7 2.0
22/01:30am 26.3 31.7 25.2 94 0.8 W 6 7 3 4 1009.1 1008.8 2.0
22/01:00am 26.2 32.1 25.3 95 0.6 W 4 6 2 3 1009.5 1009.2 2.0
22/12:30am 26.2 31.8 24.9 92 0.9 W 4 6 2 3 1009.9 1009.6 1.4
22/12:00am 26.2 32.4 24.6 91 1.1 CALM 0 0 0 0 1010.1 1009.9 1.4
 
Date/Time
CST
Temp
°C
App
Temp
°C
Dew
Point
°C
Rel
Hum
%
Delta-T
°C
Wind Press
QNH
hPa
Press
MSL
hPa
Rain since
9am
mm
Dir  Spd
km/h
Gust
km/h
Spd
kts
Gust
kts
21/11:30pm 26.4 31.3 24.4 89 1.4 SW 6 9 3 5 1010.6 1010.4 1.4
21/11:00pm 26.7 30.7 23.8 84 2.0 SSW 9 15 5 8 1010.7 1010.5 1.4
21/10:30pm 27.2 30.1 23.9 82 2.3 SSW 15 20 8 11 1010.6 1010.4 1.4
21/10:00pm 28.0 32.6 25.3 85 1.9 WSW 11 15 6 8 1010.6 1010.4 1.4
21/09:30pm 27.7 32.4 25.0 85 1.9 W 9 11 5 6 1010.1 1009.9 1.4
21/09:00pm 27.5 32.7 24.8 85 1.9 WNW 6 7 3 4 1010.0 1009.8 1.4
21/08:30pm 27.5 32.0 24.6 84 2.0 W 9 9 5 5 1009.7 1009.4 1.4
21/08:00pm 27.6 32.9 25.0 86 1.8 WNW 6 7 3 4 1009.3 1009.0 1.4
21/07:30pm 27.9 33.0 25.0 84 2.0 W 7 9 4 5 1009.1 1008.8 1.4
21/07:00pm 28.4 32.2 24.7 80 2.6 W 13 17 7 9 1008.7 1008.4 1.4
21/06:30pm 29.0 31.9 24.4 76 3.2 WNW 17 20 9 11 1008.2 1007.9 1.4
21/06:00pm 29.2 32.0 24.3 75 3.4 WNW 17 22 9 12 1008.1 1007.8 1.4
21/05:30pm 30.3 33.4 23.5 67 4.7 WNW 13 19 7 10 1007.4 1007.1 1.4
21/05:00pm 30.0 32.5 24.4 72 3.9 WNW 19 24 10 13 1007.4 1007.1 1.4
21/04:30pm 30.0 32.0 24.0 70 4.2 WNW 20 28 11 15 1007.3 1007.0 1.4
21/04:00pm 29.8 33.0 25.0 75 3.4 WNW 17 22 9 12 1007.5 1007.2 1.4
21/03:30pm 29.5 33.7 24.8 76 3.3 WNW 11 19 6 10 1007.7 1007.4 1.4
21/03:00pm 29.4 33.9 23.9 72 3.8 W 7 13 4 7 1008.0 1007.7 1.4
21/02:30pm 29.6 33.5 24.3 73 3.7 WSW 11 17 6 9 1008.1 1007.8 1.4
21/02:00pm 29.3 33.1 24.0 73 3.7 SW 11 17 6 9 1008.6 1008.3 1.4
21/01:30pm 28.8 33.0 24.7 78 2.9 SW 11 17 6 9 1008.7 1008.4 1.4
21/01:00pm 28.0 31.9 24.3 80 2.6 SSW 11 15 6 8 1009.1 1008.8 1.2
21/12:30pm 27.1 31.7 24.2 84 2.0 SW 7 9 4 5 1009.6 1009.3 1.2
21/12:00pm 26.1 31.8 24.4 90 1.2 SSW 2 6 1 3 1009.9 1009.6 1.2
21/11:30am 25.6 30.5 24.3 92 0.9 S 6 7 3 4 1010.5 1010.3 1.2
21/11:00am 25.4 30.2 24.2 93 0.8 SSE 6 6 3 3 1011.0 1010.8 1.2
21/10:30am 25.0 29.5 24.0 94 0.7 SSE 7 9 4 5 1011.2 1011.0 1.0
21/10:00am 24.6 28.9 23.6 94 0.7 SSE 7 9 4 5 1011.4 1011.2 0.6
21/09:30am 24.5 28.9 23.8 96 0.5 SE 7 7 4 4 1011.5 1011.3 0.2
21/09:00am 24.4 29.4 23.8 96 0.4 SE 4 6 2 3 1011.5 1011.3 21.6
21/08:30am 24.3 29.2 23.6 96 0.5 ESE 4 6 2 3 1011.5 1011.3 21.6
21/08:00am 24.2 29.1 23.6 96 0.4 E 4 6 2 3 1011.2 1011.0 21.4
21/07:30am 24.3 28.8 23.7 96 0.4 NNW 6 11 3 6 1011.2 1011.0 20.8
21/07:00am 24.2 25.0 23.2 94 0.7 WSW 24 35 13 19 1010.6 1010.4 19.4
21/06:54am 24.5 24.3 22.7 90 1.2 SW 28 39 15 21 1010.3 1010.1 19.0
21/06:40am 24.8 30.7 24.1 96 0.5 CALM 0 11 0 6 1009.8 1009.5 18.6
21/06:30am 24.8 30.2 23.8 94 0.7 SW 2 4 1 2 1009.7 1009.4 18.4
21/06:07am 24.7 27.0 23.5 93 0.8 SSW 17 30 9 16 1009.4 1009.1 9.0
21/06:00am 24.6 26.7 23.1 91 1.0 SW 17 30 9 16 1009.1 1008.8 8.2
21/05:43am 26.0 29.9 24.9 94 0.8 WNW 13 26 7 14 1008.9 1008.6 2.2
21/05:30am 26.1 31.8 25.0 94 0.8 NNW 4 9 2 5 1008.7 1008.4 1.4
21/05:00am 26.3 31.8 24.7 91 1.1 SW 4 6 2 3 1008.5 1008.2 1.4
21/04:30am 27.0 32.5 25.6 92 1.0 NNW 7 13 4 7 1008.1 1007.8 1.4
21/04:00am 27.3 31.8 25.2 88 1.5 NW 11 13 6 7 1008.1 1007.8 1.2
21/03:30am 27.0 31.9 25.3 90 1.2 NNW 9 11 5 6 1008.4 1008.1 1.2
21/03:00am 27.0 32.2 25.1 89 1.3 NNW 7 11 4 6 1008.2 1007.9 1.2
21/02:30am 27.2 32.5 25.2 89 1.4 NNW 7 9 4 5 1008.5 1008.2 1.2
21/02:00am 27.4 32.2 25.1 87 1.6 NNW 9 11 5 6 1008.7 1008.4 1.2
21/01:30am 27.6 32.3 25.0 86 1.8 NNW 9 11 5 6 1008.9 1008.6 1.2
21/01:00am 27.7 33.0 25.3 87 1.7 NNW 7 9 4 5 1009.2 1008.9 1.2
21/12:30am 27.5 32.4 24.6 84 2.0 NNW 7 15 4 8 1009.4 1009.1 1.2
21/12:00am 27.7 32.1 24.4 82 2.3 WNW 9 11 5 6 1009.7 1009.4 1.2
 
Date/Time
CST
Temp
°C
App
Temp
°C
Dew
Point
°C
Rel
Hum
%
Delta-T
°C
Wind Press
QNH
hPa
Press
MSL
hPa
Rain since
9am
mm
Dir  Spd
km/h
Gust
km/h
Spd
kts
Gust
kts
20/11:30pm 27.9 32.8 24.6 82 2.3 NW 7 11 4 6 1009.9 1009.6 1.2
20/11:00pm 28.2 31.5 23.9 77 3.0 WNW 13 17 7 9 1009.9 1009.6 1.2
20/10:30pm 28.2 31.7 23.6 76 3.2 WNW 11 17 6 9 1009.6 1009.3 1.2
20/10:00pm 27.8 31.5 23.9 79 2.7 W 11 15 6 8 1009.4 1009.1 1.2
20/09:30pm 27.6 31.7 24.0 81 2.5 W 9 13 5 7 1009.2 1008.9 1.2
20/09:00pm 27.7 31.4 23.9 80 2.6 W 11 15 6 8 1009.0 1008.7 1.2
20/08:30pm 27.6 31.0 24.0 81 2.5 W 13 17 7 9 1008.4 1008.1 1.2
20/08:00pm 27.5 31.3 24.0 81 2.4 W 11 17 6 9 1008.1 1007.8 1.2
20/07:30pm 27.7 31.4 23.9 80 2.6 WSW 11 17 6 9 1008.0 1007.7 1.2
20/07:00pm 27.8 31.3 23.6 78 2.9 WSW 11 17 6 9 1007.7 1007.4 1.2
20/06:30pm 28.0 30.9 23.2 75 3.3 W 13 19 7 10 1007.5 1007.2 1.2
20/06:00pm 27.9 30.7 23.7 78 2.9 W 15 20 8 11 1007.4 1007.1 1.2
20/05:30pm 27.9 30.3 23.7 78 2.9 W 17 22 9 12 1007.5 1007.2 1.2
20/05:00pm 28.2 30.2 24.0 78 2.9 W 20 24 11 13 1007.2 1006.9 1.2
20/04:30pm 28.1 30.6 23.8 77 3.0 W 17 22 9 12 1007.1 1006.8 1.2
20/04:00pm 28.0 30.0 23.0 74 3.4 W 17 22 9 12 1006.9 1006.6 1.2
20/03:30pm 28.0 30.6 24.0 79 2.8 WSW 17 22 9 12 1007.2 1006.9 1.2
20/03:00pm 28.5 30.5 24.0 76 3.1 WSW 20 26 11 14 1007.4 1007.1 1.2
20/02:30pm 27.4 29.9 24.7 85 1.9 WSW 20 30 11 16 1007.7 1007.4 1.2
20/02:00pm 26.9 30.1 24.9 89 1.4 W 17 22 9 12 1008.3 1008.0 1.2
20/01:30pm 26.3 28.7 24.6 90 1.2 W 20 30 11 16 1008.6 1008.3 1.2
20/01:00pm 26.1 28.1 24.5 91 1.1 W 22 32 12 17 1008.9 1008.6 1.0
20/12:30pm 26.2 30.5 24.9 92 0.9 WSW 11 13 6 7 1009.0 1008.7 0.8
20/12:00pm 26.3 30.5 24.7 91 1.1 WSW 11 13 6 7 1009.2 1008.9 0.4
20/11:30am 27.2 31.1 24.9 87 1.6 W 13 17 7 9 1009.5 1009.2 0.0
20/11:00am 28.1 31.0 24.4 80 2.6 WNW 17 26 9 14 1009.8 1009.5 0.0
20/10:30am 28.4 32.4 25.6 85 2.0 NW 15 20 8 11 1009.6 1009.3 0.0
20/10:00am 27.4 32.7 25.3 88 1.5 NW 7 9 4 5 1009.8 1009.5 0.0
20/09:30am 26.7 32.0 25.0 90 1.2 NW 6 7 3 4 1010.0 1009.8 0.0
20/09:00am 26.1 32.1 24.8 92 0.9 NNW 2 4 1 2 1010.0 1009.8 24.6
20/08:30am 25.4 31.7 24.8 96 0.4 CALM 0 0 0 0 1009.7 1009.4 24.6
20/08:00am 25.1 31.4 24.7 98 0.3 CALM 0 0 0 0 1009.4 1009.1 24.6
20/07:30am 24.8 30.7 24.1 96 0.5 CALM 0 0 0 0 1009.2 1008.9 24.4
20/07:00am 24.5 30.3 23.9 96 0.4 CALM 0 0 0 0 1008.8 1008.5 24.0
20/06:30am 24.3 30.0 23.7 96 0.4 CALM 0 0 0 0 1008.5 1008.2 23.4
20/06:00am 24.2 29.8 23.6 96 0.4 CALM 0 0 0 0 1008.0 1007.7 23.0
20/05:30am 23.8 28.8 23.2 96 0.4 E 2 4 1 2 1007.9 1007.6 22.4
20/05:00am 24.1 28.8 23.4 96 0.5 NNW 4 6 2 3 1007.7 1007.4 21.4
20/04:38am 24.4 28.0 23.7 96 0.5 NNW 11 17 6 9 1007.8 1007.5 20.4
20/04:30am 24.6 27.6 24.0 96 0.4 NNW 15 22 8 12 1007.9 1007.6 19.8
20/04:23am 24.8 27.4 23.9 95 0.6 WNW 17 24 9 13 1008.3 1008.0 19.0
20/04:00am 26.9 32.4 26.1 95 0.6 NW 9 28 5 15 1007.5 1007.2 2.4
20/03:30am 26.8 32.8 26.1 96 0.5 N 6 7 3 4 1007.3 1007.0 1.2
20/03:00am 26.7 32.6 25.9 95 0.6 NNE 6 6 3 3 1007.5 1007.2 1.2
20/02:30am 26.9 33.1 25.8 94 0.8 N 4 6 2 3 1008.0 1007.7 0.6
20/02:00am 27.3 32.8 25.6 90 1.2 NNW 7 11 4 6 1008.0 1007.7 0.2
20/01:30am 28.6 31.7 24.1 76 3.1 NW 15 19 8 10 1008.0 1007.7 0.2
20/01:00am 28.5 32.4 24.2 77 3.0 NNW 11 13 6 7 1008.2 1007.9 0.2
20/12:30am 28.3 32.7 24.4 79 2.7 NNW 9 11 5 6 1008.3 1008.0 0.2
20/12:00am 28.6 32.8 24.1 76 3.1 NNW 9 11 5 6 1008.7 1008.4 0.2
 
Date/Time
CST
Temp
°C
App
Temp
°C
Dew
Point
°C
Rel
Hum
%
Delta-T
°C
Wind Press
QNH
hPa
Press
MSL
hPa
Rain since
9am
mm
Dir  Spd
km/h
Gust
km/h
Spd
kts
Gust
kts
19/11:30pm 27.9 32.6 24.9 84 2.1 NNW 9 11 5 6 1009.1 1008.8 0.2
19/11:00pm 28.2 33.4 24.8 82 2.4 NW 6 7 3 4 1009.1 1008.8 0.2
19/10:30pm 28.3 33.2 24.3 79 2.8 NNW 6 9 3 5 1009.1 1008.8 0.2
19/10:00pm 28.6 33.1 24.0 76 3.2 NW 7 11 4 6 1009.1 1008.8 0.2
19/09:30pm 28.7 32.8 23.3 72 3.7 WNW 7 9 4 5 1008.9 1008.6 0.2
19/09:00pm 28.8 32.7 23.6 73 3.6 WNW 9 11 5 6 1008.7 1008.4 0.2
19/08:30pm 28.8 31.8 23.4 72 3.7 WNW 13 17 7 9 1008.6 1008.3 0.2
19/08:00pm 27.8 32.2 24.5 82 2.3 WNW 9 11 5 6 1008.7 1008.4 0.2
19/07:30pm 27.5 32.7 24.8 85 1.9 SSW 6 9 3 5 1008.3 1008.0 0.2
19/07:00pm 27.3 32.4 24.9 87 1.7 SSW 7 9 4 5 1007.9 1007.6 0.2
19/06:30pm 27.4 32.0 25.3 88 1.5 SW 11 17 6 9 1007.4 1007.1 0.2
19/06:00pm 29.1 31.5 23.6 72 3.8 WNW 17 20 9 11 1007.1 1006.8 0.2
19/05:30pm 29.3 31.4 23.8 72 3.8 WNW 19 24 10 13 1007.1 1006.8 0.2
19/05:00pm 29.5 33.7 24.8 76 3.3 NW 11 17 6 9 1007.1 1006.8 0.2
19/04:30pm 27.5 29.3 24.2 82 2.3 NW 22 30 12 16 1007.2 1006.9 0.2
19/04:00pm 29.4 29.9 23.3 69 4.2 NW 26 33 14 18 1007.4 1007.1 0.2
19/03:30pm 30.5 31.1 22.1 61 5.7 WNW 22 32 12 17 1007.6 1007.3 0.2
19/03:00pm 31.3 32.3 22.9 61 5.8 WNW 22 30 12 16 1008.0 1007.7 0.2
19/02:30pm 32.3 32.1 21.3 52 7.4 WNW 24 32 13 17 1008.2 1007.9 0.2
19/02:00pm 31.4 32.9 21.3 55 6.8 W 15 22 8 12 1008.7 1008.4 0.2
19/01:30pm 31.4 34.1 22.8 60 5.9 W 13 19 7 10 1009.0 1008.7 0.2
19/01:00pm 30.8 33.5 22.9 62 5.4 W 13 19 7 10 1009.3 1009.0 0.2
19/12:30pm 29.8 32.9 22.8 66 4.8 WSW 11 19 6 10 1009.7 1009.4 0.2
19/12:00pm 29.3 31.9 23.3 70 4.1 SW 15 19 8 10 1010.1 1009.9 0.2
19/11:30am 29.0 32.1 23.5 72 3.8 WSW 13 19 7 10 1010.2 1010.0 0.2
19/11:00am 29.5 32.8 23.9 72 3.9 SW 13 19 7 10 1010.3 1010.1 0.2
19/10:30am 29.1 31.8 23.4 71 3.9 WSW 15 22 8 12 1010.5 1010.3 0.2
19/10:00am 28.8 31.5 23.4 72 3.7 WNW 15 20 8 11 1010.6 1010.4 0.0
19/09:30am 28.7 31.6 23.8 75 3.4 WNW 15 20 8 11 1010.5 1010.3 0.0
19/09:00am 27.9 31.3 24.0 79 2.7 WNW 13 19 7 10 1010.5 1010.3 3.2
19/08:30am 27.8 30.4 23.9 79 2.7 WNW 17 20 9 11 1010.3 1010.1 3.2
19/08:00am 27.0 30.9 24.3 85 1.9 WNW 11 17 6 9 1010.3 1010.1 3.2
19/07:30am 26.5 28.9 23.6 84 2.0 W 17 20 9 11 1010.3 1010.1 3.2
19/07:00am 26.4 29.4 23.3 83 2.1 W 13 20 7 11 1010.0 1009.8 3.2
19/06:30am 26.3 28.2 23.7 85 1.8 W 20 28 11 15 1010.0 1009.8 3.2
19/06:00am 26.3 28.4 24.1 88 1.5 WNW 20 28 11 15 1009.9 1009.6 3.2
19/05:30am 25.9 28.7 24.3 91 1.1 WNW 17 24 9 13 1009.8 1009.5 3.2

Other Formats:

Comma delimited format used in spreadsheet applications
http://www.bom.gov.au/fwo/IDD60801/IDD60801.94120.axf

JavaScript Object Notation format (JSON) in row-major order
http://www.bom.gov.au/fwo/IDD60801/IDD60801.94120.json